Time;durP1;ratioP1;P1;durP2;ratioP2;P2;SDS_P1;SDS_P2;PMS_P1;PMS_P2;Temp;Humidity;BMP_temperature;BMP_pressure;BME280_temperature;BME280_humidity;BME280_pressure;Samples;Min_cycle;Max_cycle;Signal;HPM_P1;HPM_P2
2023/01/02 00:00:40;;;;;;;1.90;0.85;;;23.30;48.90;;;;;;5071551;28;20725;-40
2023/01/02 00:03:10;;;;;;;3.67;1.30;;;23.30;48.80;;;;;;5071621;28;20218;-40
2023/01/02 00:05:41;;;;;;;1.48;0.95;;;23.40;48.70;;;;;;5072295;28;20203;-45
2023/01/02 00:08:12;;;;;;;2.08;1.02;;;23.40;48.70;;;;;;5088483;28;20194;-44
2023/01/02 00:10:42;;;;;;;2.05;0.93;;;23.40;48.70;;;;;;5092342;28;20197;-42
2023/01/02 00:13:15;;;;;;;2.63;0.90;;;23.40;48.60;;;;;;5091767;28;20201;-41
2023/01/02 00:15:46;;;;;;;2.97;1.13;;;23.50;48.60;;;;;;5092719;28;20194;-42
2023/01/02 00:18:16;;;;;;;2.78;0.90;;;23.50;48.60;;;;;;5091479;28;20206;-40
2023/01/02 00:20:47;;;;;;;2.60;0.90;;;23.50;48.50;;;;;;5091561;28;20221;-40
2023/01/02 00:23:18;;;;;;;3.05;1.10;;;23.50;48.50;;;;;;5087890;28;20217;-40
2023/01/02 00:25:50;;;;;;;3.00;0.82;;;23.50;48.50;;;;;;5070715;28;20191;-48
2023/01/02 00:28:23;;;;;;;4.82;1.13;;;23.50;48.50;;;;;;5071528;28;20194;-50
2023/01/02 00:30:53;;;;;;;4.05;1.17;;;23.60;48.30;;;;;;5070680;28;20543;-46
2023/01/02 00:33:24;;;;;;;2.13;0.88;;;23.50;48.50;;;;;;5071418;28;20210;-49
2023/01/02 00:35:55;;;;;;;3.95;0.95;;;23.50;48.80;;;;;;5072148;28;20206;-42
2023/01/02 00:38:25;;;;;;;2.75;0.80;;;23.50;48.90;;;;;;5071823;28;20690;-45
2023/01/02 00:40:57;;;;;;;2.75;0.98;;;23.40;49.00;;;;;;5069982;28;20238;-43
2023/01/02 00:43:30;;;;;;;3.45;1.10;;;23.40;49.00;;;;;;5070971;28;20226;-42
2023/01/02 00:46:00;;;;;;;3.80;0.95;;;23.40;49.00;;;;;;5070366;28;20203;-43
2023/01/02 00:48:31;;;;;;;3.10;0.88;;;23.40;49.00;;;;;;5070647;28;20198;-40
2023/01/02 00:51:02;;;;;;;3.08;1.08;;;23.40;49.20;;;;;;5072949;28;20274;-41
2023/01/02 00:53:32;;;;;;;3.08;0.90;;;23.50;49.10;;;;;;5071041;28;20215;-44
2023/01/02 00:56:03;;;;;;;5.13;0.85;;;23.50;49.10;;;;;;5071021;28;20202;-40
2023/01/02 00:58:36;;;;;;;2.70;1.00;;;23.50;49.20;;;;;;5071135;28;20199;-43
2023/01/02 01:01:07;;;;;;;2.38;0.80;;;23.50;49.10;;;;;;5070873;28;20698;-45
2023/01/02 01:03:37;;;;;;;1.77;0.90;;;23.60;49.10;;;;;;5070951;28;20215;-44
2023/01/02 01:06:13;;;;;;;4.18;1.25;;;23.60;49.10;;;;;;5070293;28;20651;-41
2023/01/02 01:08:44;;;;;;;1.63;0.70;;;23.60;49.00;;;;;;5070975;28;20197;-41
2023/01/02 01:11:16;;;;;;;3.38;1.00;;;23.70;49.00;;;;;;5070662;28;20190;-41
2023/01/02 01:13:49;;;;;;;2.65;0.80;;;23.70;48.90;;;;;;5070713;28;20706;-44
2023/01/02 01:16:21;;;;;;;2.47;0.70;;;23.70;48.80;;;;;;5070896;28;20195;-44
2023/01/02 01:18:56;;;;;;;2.78;0.73;;;23.70;48.70;;;;;;5070683;28;20207;-42
2023/01/02 01:21:26;;;;;;;2.65;0.80;;;23.80;48.70;;;;;;5070405;28;20249;-43
2023/01/02 01:23:58;;;;;;;2.08;0.52;;;23.80;48.60;;;;;;5069620;28;20219;-42
2023/01/02 01:26:28;;;;;;;1.90;0.73;;;23.80;48.60;;;;;;5088579;28;20194;-41
2023/01/02 01:29:01;;;;;;;1.40;0.52;;;23.80;48.50;;;;;;5091155;28;20201;-41
2023/01/02 01:31:32;;;;;;;2.28;0.70;;;23.80;48.40;;;;;;5090337;28;20201;-43
2023/01/02 01:34:02;;;;;;;1.73;0.88;;;23.80;49.00;;;;;;5090655;28;20685;-42
2023/01/02 01:36:33;;;;;;;1.88;0.70;;;23.90;48.40;;;;;;5090692;28;20641;-42
2023/01/02 01:39:04;;;;;;;2.55;0.75;;;23.90;48.40;;;;;;5090437;28;20194;-47
2023/01/02 01:41:35;;;;;;;1.55;0.50;;;23.90;48.90;;;;;;5090358;28;20222;-41
2023/01/02 01:44:33;;;;;;;2.20;0.60;;;23.90;48.20;;;;;;5078857;28;20227;-42
2023/01/02 01:47:06;;;;;;;1.92;0.63;;;24.00;48.30;;;;;;5057686;28;20207;-44
2023/01/02 01:49:37;;;;;;;1.58;0.70;;;24.00;48.10;;;;;;5070189;28;20190;-45
2023/01/02 01:52:10;;;;;;;2.88;0.75;;;24.00;48.10;;;;;;5070278;28;20195;-45
2023/01/02 01:54:44;;;;;;;1.65;0.73;;;24.10;48.10;;;;;;5070102;28;20223;-48
2023/01/02 01:57:17;;;;;;;1.55;0.63;;;24.10;48.00;;;;;;5069976;28;20210;-42
2023/01/02 01:59:49;;;;;;;2.55;0.80;;;24.10;48.00;;;;;;5087588;28;20194;-45
2023/01/02 02:02:24;;;;;;;1.70;0.75;;;24.10;48.10;;;;;;5070534;28;20211;-43
2023/01/02 02:04:55;;;;;;;2.67;0.85;;;24.10;48.10;;;;;;5070119;28;20222;-41
2023/01/02 02:07:26;;;;;;;1.73;0.60;;;24.10;48.00;;;;;;5070558;28;20224;-46
2023/01/02 02:10:01;;;;;;;1.48;0.60;;;24.10;48.00;;;;;;5069716;28;20198;-45
2023/01/02 02:12:32;;;;;;;1.58;0.60;;;24.20;48.10;;;;;;5070500;28;20202;-43
2023/01/02 02:15:03;;;;;;;2.17;0.77;;;24.20;48.10;;;;;;5069530;28;20222;-47
2023/01/02 02:17:49;;;;;;;2.17;0.50;;;24.20;48.00;;;;;;5070396;28;20210;-43
2023/01/02 02:20:32;;;;;;;1.42;0.50;;;24.20;48.00;;;;;;5070297;28;20662;-41
2023/01/02 02:23:33;;;;;;;2.20;0.70;;;24.20;47.90;;;;;;5069954;28;20642;-41
2023/01/02 02:26:29;;;;;;;1.48;0.52;;;24.30;47.90;;;;;;5069147;28;20205;-45
2023/01/02 02:29:33;;;;;;;1.27;0.60;;;24.30;47.80;;;;;;5070660;28;20199;-45
2023/01/02 02:32:15;;;;;;;0.90;0.40;;;24.30;47.80;;;;;;5069544;28;20599;-40
2023/01/02 02:34:54;;;;;;;1.25;0.50;;;24.30;47.80;;;;;;5069308;28;20705;-41
2023/01/02 02:37:34;;;;;;;1.83;0.60;;;24.30;47.80;;;;;;5070264;28;20837;-45
2023/01/02 02:40:16;;;;;;;1.60;0.43;;;24.30;47.80;;;;;;5069529;28;20198;-42
2023/01/02 02:42:57;;;;;;;1.38;0.50;;;24.40;47.80;;;;;;5070175;28;20203;-42
2023/01/02 02:45:36;;;;;;;1.40;0.57;;;24.40;47.80;;;;;;5069896;28;20215;-44
2023/01/02 02:48:17;;;;;;;1.85;0.65;;;24.40;47.80;;;;;;5069131;28;20620;-43
2023/01/02 02:50:53;;;;;;;0.68;0.57;;;24.40;47.70;;;;;;5070002;28;20206;-44
2023/01/02 02:53:26;;;;;;;0.85;0.40;;;24.40;47.80;;;;;;5068945;28;20210;-45
2023/01/02 02:55:59;;;;;;;2.58;0.80;;;24.50;47.80;;;;;;5070154;28;20198;-42
2023/01/02 02:58:32;;;;;;;1.23;0.50;;;24.50;47.80;;;;;;5089185;28;20213;-46
2023/01/02 03:01:07;;;;;;;0.70;0.50;;;24.50;47.80;;;;;;5089096;28;20218;-47
2023/01/02 03:03:39;;;;;;;1.40;0.40;;;24.50;47.70;;;;;;5089328;28;20214;-41
2023/01/02 03:06:26;;;;;;;2.88;0.57;;;24.50;47.70;;;;;;5091990;28;20194;-40
2023/01/02 03:09:09;;;;;;;1.20;0.52;;;24.60;47.60;;;;;;5093831;28;20790;-44
2023/01/02 03:11:49;;;;;;;2.08;0.70;;;24.60;47.60;;;;;;5092480;28;20198;-42
2023/01/02 03:14:27;;;;;;;1.05;0.60;;;24.60;47.60;;;;;;5093457;28;20269;-42
2023/01/02 03:17:04;;;;;;;2.25;0.65;;;24.70;47.70;;;;;;5093343;28;20198;-41
2023/01/02 03:19:43;;;;;;;1.77;0.63;;;24.70;47.60;;;;;;5092905;28;20198;-43
2023/01/02 03:22:19;;;;;;;0.60;0.50;;;24.70;47.70;;;;;;5093160;28;20225;-43
2023/01/02 03:24:52;;;;;;;1.05;0.43;;;24.70;47.70;;;;;;5076261;28;20218;-47
2023/01/02 03:27:27;;;;;;;1.13;0.50;;;24.70;47.70;;;;;;5092778;28;20190;-44
2023/01/02 03:30:02;;;;;;;0.77;0.47;;;24.70;47.70;;;;;;5092461;28;20202;-46
2023/01/02 03:32:35;;;;;;;2.33;0.65;;;24.70;47.70;;;;;;5092642;28;20201;-43
2023/01/02 03:35:13;;;;;;;0.90;0.70;;;24.80;47.80;;;;;;5092515;28;20586;-41
2023/01/02 03:37:49;;;;;;;3.67;0.60;;;24.80;47.80;;;;;;5093149;28;20285;-42
2023/01/02 03:40:25;;;;;;;2.15;0.52;;;24.80;47.70;;;;;;5092753;28;20635;-41
2023/01/02 03:42:59;;;;;;;1.77;0.80;;;24.90;47.70;;;;;;5093265;28;20201;-43
2023/01/02 03:45:34;;;;;;;2.05;0.60;;;24.90;48.20;;;;;;5092212;28;20221;-44
2023/01/02 03:48:10;;;;;;;1.90;0.60;;;24.90;47.60;;;;;;5093335;28;20553;-42
2023/01/02 03:50:47;;;;;;;1.65;0.75;;;24.90;47.50;;;;;;5092671;28;20209;-47
2023/01/02 03:53:18;;;;;;;1.60;0.65;;;24.90;47.50;;;;;;5089044;28;20202;-44
2023/01/02 03:56:02;;;;;;;1.85;0.70;;;25.00;47.50;;;;;;5072686;28;20190;-46
2023/01/02 03:58:40;;;;;;;2.08;0.82;;;25.00;47.40;;;;;;5089345;28;20202;-43
2023/01/02 04:01:16;;;;;;;1.42;0.63;;;25.00;47.40;;;;;;5091559;28;20226;-44
2023/01/02 04:03:50;;;;;;;1.15;0.65;;;25.00;47.40;;;;;;5091885;28;20218;-45
2023/01/02 04:06:29;;;;;;;2.70;0.70;;;25.10;47.40;;;;;;5092207;28;20198;-46
2023/01/02 04:09:06;;;;;;;1.77;0.63;;;25.10;47.40;;;;;;5092607;28;20221;-48
2023/01/02 04:11:39;;;;;;;3.13;0.88;;;25.10;47.40;;;;;;5091996;28;20202;-45
2023/01/02 04:14:17;;;;;;;1.35;0.88;;;25.10;47.30;;;;;;5091905;28;20229;-45
2023/01/02 04:16:50;;;;;;;1.10;0.50;;;25.10;47.30;;;;;;5092239;28;20205;-46
2023/01/02 04:19:25;;;;;;;2.20;0.60;;;25.20;47.40;;;;;;5091719;28;20198;-44
2023/01/02 04:22:01;;;;;;;1.65;0.80;;;25.20;47.30;;;;;;5091663;28;20555;-47
2023/01/02 04:24:35;;;;;;;2.80;1.00;;;25.20;47.20;;;;;;5077630;28;20214;-40
2023/01/02 04:27:09;;;;;;;3.63;0.93;;;25.20;47.20;;;;;;5071355;28;20203;-40
2023/01/02 04:29:40;;;;;;;2.00;1.00;;;25.30;47.30;;;;;;5070977;28;20208;-40
2023/01/02 04:32:16;;;;;;;0.98;0.60;;;25.30;47.20;;;;;;5087406;28;20202;-40
2023/01/02 04:34:47;;;;;;;1.83;0.70;;;25.30;47.20;;;;;;5090785;28;20715;-43
2023/01/02 04:37:35;;;;;;;1.92;0.80;;;25.30;47.20;;;;;;5090783;28;20205;-40
2023/01/02 04:40:09;;;;;;;2.90;0.80;;;25.30;47.20;;;;;;5091097;28;20217;-47
2023/01/02 04:42:40;;;;;;;2.25;0.90;;;25.30;47.10;;;;;;5090717;28;20582;-41
2023/01/02 04:45:11;;;;;;;1.45;0.68;;;25.40;47.20;;;;;;5091772;28;20222;-40
2023/01/02 04:47:42;;;;;;;1.75;0.60;;;25.40;47.20;;;;;;5087225;28;20536;-41
2023/01/02 04:50:13;;;;;;;2.63;0.70;;;25.40;47.20;;;;;;5091054;28;20194;-46
2023/01/02 04:52:46;;;;;;;3.13;0.90;;;25.40;47.90;;;;;;5090935;28;20205;-43
2023/01/02 04:55:17;;;;;;;2.75;1.00;;;25.50;47.30;;;;;;5070531;28;20218;-40
2023/01/02 04:57:47;;;;;;;1.75;0.90;;;25.50;47.30;;;;;;5070169;28;20857;-44
2023/01/02 05:00:18;;;;;;;2.85;0.70;;;25.50;47.20;;;;;;5070807;28;20444;-42
2023/01/02 05:02:49;;;;;;;3.28;0.77;;;25.50;47.20;;;;;;5070538;28;20226;-41
2023/01/02 05:05:20;;;;;;;2.92;0.90;;;25.50;47.20;;;;;;5069236;28;20223;-41
2023/01/02 05:07:52;;;;;;;2.70;0.90;;;25.50;47.20;;;;;;5071135;28;20195;-42
2023/01/02 05:10:23;;;;;;;1.48;0.63;;;25.50;47.20;;;;;;5070810;28;20194;-41
2023/01/02 05:12:54;;;;;;;2.95;1.33;;;25.60;47.20;;;;;;5071056;28;20202;-44
2023/01/02 05:15:24;;;;;;;1.67;0.90;;;25.60;47.30;;;;;;5070415;28;20219;-41
2023/01/02 05:17:55;;;;;;;3.22;0.85;;;25.60;47.20;;;;;;5070900;28;20195;-41
2023/01/02 05:20:26;;;;;;;1.77;0.85;;;25.60;47.20;;;;;;5069475;28;20205;-44
2023/01/02 05:25:46;;;;;;;4.57;0.93;;;25.60;47.30;;;;;;5087909;28;20580;-47
2023/01/02 05:28:16;;;;;;;2.38;0.82;;;25.60;47.30;;;;;;5090007;28;20194;-44
2023/01/02 05:30:48;;;;;;;1.83;0.85;;;25.60;47.30;;;;;;5090731;28;20198;-39
2023/01/02 05:33:19;;;;;;;1.80;0.80;;;25.60;47.30;;;;;;5090822;28;20251;-41
2023/01/02 05:35:49;;;;;;;2.20;0.88;;;25.60;47.30;;;;;;5090963;28;20195;-41
2023/01/02 05:38:22;;;;;;;2.95;0.90;;;25.60;47.30;;;;;;5090508;28;20198;-42
2023/01/02 05:41:00;;;;;;;2.63;0.57;;;25.70;47.30;;;;;;5090018;28;20194;-41
2023/01/02 05:43:33;;;;;;;3.40;0.90;;;25.70;47.30;;;;;;5089914;28;20225;-44
2023/01/02 05:46:11;;;;;;;1.73;0.68;;;25.70;47.30;;;;;;5090688;28;20229;-40
2023/01/02 05:48:42;;;;;;;2.15;0.80;;;25.70;47.30;;;;;;5089826;28;20198;-39
2023/01/02 05:51:14;;;;;;;1.67;0.80;;;25.70;47.30;;;;;;5090274;28;20563;-40
2023/01/02 05:53:46;;;;;;;2.03;0.93;;;25.70;47.30;;;;;;5082617;28;20226;-42
2023/01/02 05:56:20;;;;;;;1.83;0.90;;;25.70;47.30;;;;;;5069452;28;20202;-43
2023/01/02 05:58:51;;;;;;;1.58;0.68;;;25.70;47.30;;;;;;5072537;28;20202;-44
2023/01/02 06:01:23;;;;;;;2.30;0.80;;;25.70;47.30;;;;;;5079666;28;20206;-44
2023/01/02 06:03:55;;;;;;;3.30;1.00;;;25.70;47.30;;;;;;5090176;28;20300;-43
2023/01/02 06:06:27;;;;;;;1.40;0.70;;;25.70;47.30;;;;;;5090226;28;20672;-44
2023/01/02 06:09:01;;;;;;;2.10;0.88;;;25.70;47.30;;;;;;5089827;28;20197;-44
2023/01/02 06:11:32;;;;;;;2.22;0.85;;;25.70;47.30;;;;;;5089962;28;20198;-44
2023/01/02 06:14:02;;;;;;;4.60;1.10;;;25.80;47.40;;;;;;5089549;28;20685;-40
2023/01/02 06:16:33;;;;;;;3.28;0.90;;;25.70;47.30;;;;;;5090273;28;20194;-40
2023/01/02 06:19:04;;;;;;;3.58;0.85;;;25.70;47.30;;;;;;5090526;28;20727;-41
2023/01/02 06:21:35;;;;;;;1.63;0.88;;;25.80;47.30;;;;;;5089102;28;20194;-43
2023/01/02 06:24:08;;;;;;;1.67;0.70;;;25.80;47.40;;;;;;5084326;28;20213;-42
2023/01/02 06:26:39;;;;;;;1.70;0.80;;;25.80;47.30;;;;;;5089441;28;20580;-42
2023/01/02 06:29:10;;;;;;;1.30;0.80;;;25.80;47.30;;;;;;5090436;28;20202;-42
2023/01/02 06:31:41;;;;;;;1.85;0.80;;;25.80;47.30;;;;;;5090711;28;20194;-42
2023/01/02 06:34:13;;;;;;;1.40;0.70;;;25.80;47.30;;;;;;5090672;28;20688;-41
2023/01/02 06:36:43;;;;;;;2.58;0.80;;;25.80;47.30;;;;;;5090605;28;20191;-41
2023/01/02 06:39:16;;;;;;;1.27;0.70;;;25.80;47.30;;;;;;5091223;28;20815;-40
2023/01/02 06:41:47;;;;;;;3.40;1.10;;;25.80;47.60;;;;;;5080362;28;20210;-43
2023/01/02 06:44:17;;;;;;;2.45;1.00;;;25.80;47.30;;;;;;5073807;28;20222;-42
2023/01/02 06:46:48;;;;;;;2.05;0.88;;;25.80;47.30;;;;;;5073821;28;20191;-40
2023/01/02 06:49:19;;;;;;;2.72;0.90;;;25.90;47.30;;;;;;5073770;28;20190;-42
2023/01/02 06:51:49;;;;;;;3.53;0.70;;;25.90;47.30;;;;;;5073759;28;20568;-41
2023/01/02 06:54:22;;;;;;;2.72;0.70;;;25.90;47.20;;;;;;5072448;28;20271;-39
2023/01/02 06:56:52;;;;;;;2.08;0.77;;;25.90;47.20;;;;;;5072757;28;20685;-44
2023/01/02 06:59:23;;;;;;;1.65;0.80;;;25.90;47.20;;;;;;5073010;28;20202;-41
2023/01/02 07:01:54;;;;;;;3.00;1.00;;;25.90;47.20;;;;;;5073076;28;20218;-42
2023/01/02 07:04:24;;;;;;;3.20;0.90;;;25.90;47.10;;;;;;5073597;28;20218;-43
2023/01/02 07:06:55;;;;;;;2.60;1.08;;;25.90;47.10;;;;;;5073494;28;20206;-42
2023/01/02 07:09:28;;;;;;;1.90;0.88;;;25.90;47.10;;;;;;5073055;28;20712;-39
2023/01/02 07:11:59;;;;;;;1.98;0.95;;;25.90;47.10;;;;;;5072837;28;20199;-43
2023/01/02 07:14:30;;;;;;;0.93;0.60;;;25.90;47.10;;;;;;5073464;28;20215;-45
2023/01/02 07:17:00;;;;;;;4.28;0.80;;;25.90;47.10;;;;;;5073479;28;20195;-41
2023/01/02 07:19:31;;;;;;;3.60;1.00;;;25.90;47.10;;;;;;5072839;28;20198;-41
2023/01/02 07:22:02;;;;;;;2.30;0.93;;;25.90;47.10;;;;;;5072694;28;20226;-41
2023/01/02 07:24:35;;;;;;;1.90;0.68;;;25.90;47.10;;;;;;5072947;28;20247;-42
2023/01/02 07:27:06;;;;;;;2.20;0.85;;;25.90;47.10;;;;;;5072894;28;20638;-41
2023/01/02 07:29:36;;;;;;;2.13;0.85;;;25.90;47.10;;;;;;5087293;28;20198;-42
2023/01/02 07:32:07;;;;;;;2.55;0.80;;;25.90;47.10;;;;;;5093540;28;20210;-42
2023/01/02 07:34:38;;;;;;;1.42;0.70;;;25.90;47.10;;;;;;5092842;28;20214;-40
2023/01/02 07:37:09;;;;;;;3.00;0.98;;;25.90;47.10;;;;;;5092490;28;20190;-41
2023/01/02 07:39:41;;;;;;;1.45;0.70;;;25.90;47.10;;;;;;5081147;28;20194;-41
2023/01/02 07:42:12;;;;;;;2.00;1.02;;;25.80;47.20;;;;;;5072173;28;20709;-39
2023/01/02 07:44:42;;;;;;;2.22;0.80;;;25.80;47.20;;;;;;5072415;28;20226;-42
2023/01/02 07:47:13;;;;;;;2.67;1.00;;;25.80;47.10;;;;;;5072483;28;20207;-43
2023/01/02 07:49:47;;;;;;;1.90;0.82;;;25.80;47.20;;;;;;5072417;28;20666;-45
2023/01/02 07:52:17;;;;;;;1.60;0.80;;;25.70;47.20;;;;;;5072116;28;20667;-42
2023/01/02 07:54:50;;;;;;;3.30;1.02;;;25.70;47.20;;;;;;5072412;28;20226;-44
2023/01/02 07:57:21;;;;;;;1.75;0.93;;;25.70;47.30;;;;;;5072268;28;20206;-38
2023/01/02 07:59:51;;;;;;;2.15;0.90;;;25.70;47.30;;;;;;5072662;28;20191;-41
2023/01/02 08:02:22;;;;;;;0.73;0.50;;;25.70;47.30;;;;;;5072205;28;20214;-39
2023/01/02 08:04:53;;;;;;;1.33;0.80;;;25.60;47.20;;;;;;5077049;28;20233;-41
2023/01/02 08:07:24;;;;;;;0.82;0.60;;;25.60;47.30;;;;;;5086640;28;20206;-41
2023/01/02 08:09:56;;;;;;;2.15;0.90;;;25.60;47.30;;;;;;5072458;28;20194;-41
2023/01/02 08:12:27;;;;;;;1.98;1.00;;;25.60;47.40;;;;;;5072402;28;20202;-42
2023/01/02 08:14:57;;;;;;;2.03;0.80;;;25.60;47.40;;;;;;5072147;28;20215;-39
2023/01/02 08:17:29;;;;;;;1.83;0.80;;;25.50;47.30;;;;;;5072243;28;20683;-42
2023/01/02 08:19:59;;;;;;;1.80;0.93;;;25.50;47.40;;;;;;5072181;28;20198;-42
2023/01/02 08:22:30;;;;;;;1.88;0.80;;;25.50;47.40;;;;;;5071883;28;21019;-40
2023/01/02 08:25:03;;;;;;;2.53;0.80;;;25.40;47.40;;;;;;5072100;28;20222;-40
2023/01/02 08:27:33;;;;;;;2.00;0.77;;;25.40;47.40;;;;;;5071996;28;20202;-42
2023/01/02 08:30:04;;;;;;;2.40;0.90;;;25.40;47.40;;;;;;5071528;28;20209;-44
2023/01/02 08:32:38;;;;;;;2.10;0.68;;;25.40;47.40;;;;;;5071265;28;20207;-38
2023/01/02 08:35:09;;;;;;;1.98;0.77;;;25.30;47.40;;;;;;5071706;28;20756;-45
2023/01/02 08:37:40;;;;;;;2.88;0.80;;;25.30;47.40;;;;;;5071844;28;20203;-42
2023/01/02 08:40:13;;;;;;;2.35;1.13;;;25.30;47.40;;;;;;5086768;28;20575;-41
2023/01/02 08:42:45;;;;;;;1.70;0.82;;;25.30;47.40;;;;;;5091381;28;20222;-42
2023/01/02 08:45:15;;;;;;;0.88;0.60;;;25.30;47.40;;;;;;5091611;28;20214;-38
2023/01/02 08:47:46;;;;;;;1.20;0.70;;;25.20;47.40;;;;;;5091807;28;20201;-41
2023/01/02 08:50:17;;;;;;;1.02;0.57;;;25.20;47.40;;;;;;5092226;28;20190;-41
2023/01/02 08:52:47;;;;;;;1.67;0.60;;;25.20;47.40;;;;;;5091975;28;20190;-42
2023/01/02 08:55:20;;;;;;;1.80;0.80;;;25.10;47.40;;;;;;5071555;28;20215;-43
2023/01/02 08:57:51;;;;;;;1.73;0.80;;;25.10;47.40;;;;;;5071387;28;20213;-44
2023/01/02 09:00:22;;;;;;;1.90;0.50;;;25.10;47.40;;;;;;5071338;28;20201;-44
2023/01/02 09:02:52;;;;;;;2.58;0.77;;;25.10;47.40;;;;;;5070667;28;20582;-41
2023/01/02 09:05:23;;;;;;;1.77;0.90;;;25.00;47.40;;;;;;5070688;28;20218;-41
2023/01/02 09:07:54;;;;;;;2.63;1.00;;;25.00;47.40;;;;;;5070981;28;20217;-44
2023/01/02 09:10:26;;;;;;;1.75;0.68;;;25.00;47.40;;;;;;5071123;28;20195;-42
2023/01/02 09:12:58;;;;;;;1.67;0.90;;;25.00;47.50;;;;;;5070953;28;20195;-41
2023/01/02 09:15:28;;;;;;;1.23;0.60;;;24.90;47.40;;;;;;5070367;28;20231;-44
2023/01/02 09:17:59;;;;;;;1.17;0.60;;;24.90;47.50;;;;;;5070545;28;20670;-39
2023/01/02 09:20:30;;;;;;;1.92;0.70;;;24.90;47.50;;;;;;5069086;28;20202;-42
2023/01/02 09:23:00;;;;;;;1.45;0.70;;;24.90;47.40;;;;;;5077513;28;20230;-44
2023/01/02 09:25:33;;;;;;;2.53;0.80;;;24.80;47.30;;;;;;5070825;28;20219;-40
2023/01/02 09:28:03;;;;;;;2.22;0.68;;;24.80;47.30;;;;;;5070469;28;20206;-45
2023/01/02 09:30:34;;;;;;;1.48;0.60;;;24.80;47.30;;;;;;5068351;28;20195;-42
2023/01/02 09:33:05;;;;;;;1.63;0.70;;;24.70;47.30;;;;;;5069659;28;20569;-38
2023/01/02 09:35:37;;;;;;;1.70;0.80;;;24.70;47.30;;;;;;5089356;28;20201;-40
2023/01/02 09:38:08;;;;;;;2.72;0.60;;;24.60;47.20;;;;;;5090592;28;20209;-42
2023/01/02 09:40:46;;;;;;;2.60;0.65;;;24.60;47.40;;;;;;5074364;28;20665;-41
2023/01/02 09:43:19;;;;;;;2.08;0.60;;;24.60;47.30;;;;;;5069818;28;20218;-42
2023/01/02 09:45:52;;;;;;;1.98;0.68;;;24.50;47.30;;;;;;5070045;28;20199;-42
2023/01/02 09:48:23;;;;;;;1.25;0.70;;;24.50;47.30;;;;;;5069600;28;20203;-39
2023/01/02 09:50:53;;;;;;;1.08;0.50;;;24.50;47.40;;;;;;5070625;28;20760;-44
2023/01/02 09:53:24;;;;;;;1.65;0.70;;;24.50;47.30;;;;;;5074676;28;20213;-44
2023/01/02 09:55:59;;;;;;;1.90;1.08;;;24.50;47.40;;;;;;5090960;28;20194;-43
2023/01/02 09:58:37;;;;;;;1.38;0.65;;;24.50;47.40;;;;;;5089581;28;20201;-45
2023/01/02 10:01:15;;;;;;;1.35;0.73;;;24.40;47.30;;;;;;5089973;28;20574;-42
2023/01/02 10:03:54;;;;;;;1.00;0.50;;;24.40;47.40;;;;;;5089229;28;20214;-43
2023/01/02 10:06:27;;;;;;;0.77;0.47;;;24.30;47.40;;;;;;5090079;28;20202;-44
2023/01/02 10:09:06;;;;;;;1.10;0.68;;;24.30;47.40;;;;;;5089845;28;20198;-43
2023/01/02 10:11:52;;;;;;;2.55;0.57;;;24.30;47.40;;;;;;5072316;28;20191;-44
2023/01/02 10:14:30;;;;;;;1.58;0.77;;;24.20;47.40;;;;;;5071573;28;20214;-50
2023/01/02 10:17:03;;;;;;;1.02;0.50;;;24.20;47.50;;;;;;5088618;28;20556;-43
2023/01/02 10:19:43;;;;;;;1.85;0.50;;;24.20;47.50;;;;;;5093289;28;20202;-44
2023/01/02 10:22:18;;;;;;;1.08;0.70;;;24.20;47.60;;;;;;5093386;28;20197;-47
2023/01/02 10:24:55;;;;;;;1.42;0.55;;;24.20;47.60;;;;;;5093012;28;20240;-47
2023/01/02 10:27:33;;;;;;;1.63;0.68;;;24.10;47.50;;;;;;5092710;28;20281;-42
2023/01/02 10:30:08;;;;;;;2.28;0.70;;;24.10;47.50;;;;;;5094419;28;20271;-48
2023/01/02 10:32:45;;;;;;;0.85;0.63;;;24.10;48.00;;;;;;5093554;28;20200;-44
2023/01/02 10:35:30;;;;;;;1.00;0.70;;;24.00;47.50;;;;;;5094346;28;20221;-42
2023/01/02 10:38:02;;;;;;;1.67;0.73;;;24.00;47.60;;;;;;5094145;28;20194;-44
2023/01/02 10:40:35;;;;;;;0.90;0.70;;;24.00;47.60;;;;;;5093714;28;20724;-41
2023/01/02 10:43:07;;;;;;;0.93;0.60;;;23.90;47.60;;;;;;5093453;28;20247;-40
2023/01/02 10:45:38;;;;;;;1.05;0.60;;;23.90;47.60;;;;;;5085387;28;20206;-43
2023/01/02 10:48:11;;;;;;;0.93;0.50;;;23.80;47.70;;;;;;5073238;28;20198;-45
2023/01/02 10:50:45;;;;;;;1.70;0.80;;;23.80;47.70;;;;;;5076026;28;20190;-42
2023/01/02 10:53:24;;;;;;;1.92;0.80;;;23.80;47.80;;;;;;5076265;28;20204;-41
2023/01/02 10:55:55;;;;;;;1.33;0.70;;;23.70;47.70;;;;;;5094481;28;20208;-51
2023/01/02 10:58:28;;;;;;;0.50;0.50;;;23.70;47.70;;;;;;5078899;28;20217;-44
2023/01/02 11:01:07;;;;;;;1.52;0.90;;;23.70;48.30;;;;;;5073409;28;20192;-44
2023/01/02 11:03:38;;;;;;;1.40;0.63;;;23.70;47.80;;;;;;5073145;28;20246;-44
2023/01/02 11:06:21;;;;;;;1.40;0.85;;;23.70;47.80;;;;;;5071868;28;20195;-45
2023/01/02 11:09:00;;;;;;;1.25;0.60;;;23.70;47.80;;;;;;5073138;28;20199;-43
2023/01/02 11:11:32;;;;;;;1.02;0.75;;;23.60;47.80;;;;;;5072650;28;20198;-43
2023/01/02 11:14:11;;;;;;;1.23;0.50;;;23.60;47.80;;;;;;5072505;28;20234;-46
2023/01/02 11:16:42;;;;;;;1.75;0.85;;;23.60;47.90;;;;;;5083950;28;20186;-40
2023/01/02 11:19:21;;;;;;;2.92;0.90;;;23.50;47.80;;;;;;5089150;28;20198;-38
2023/01/02 11:21:56;;;;;;;2.40;0.98;;;23.50;47.90;;;;;;5072356;28;20206;-42
2023/01/02 11:24:27;;;;;;;1.42;0.70;;;23.50;47.90;;;;;;5085689;28;20236;-45
2023/01/02 11:27:02;;;;;;;1.15;0.70;;;23.40;47.90;;;;;;5091160;28;20284;-44
2023/01/02 11:29:37;;;;;;;1.17;0.82;;;23.40;47.90;;;;;;5093012;28;20193;-44
2023/01/02 11:32:08;;;;;;;1.20;0.80;;;23.40;48.00;;;;;;5092704;28;20205;-45
2023/01/02 11:34:40;;;;;;;2.15;0.55;;;23.40;47.90;;;;;;5092570;28;20210;-45
2023/01/02 11:37:18;;;;;;;1.88;0.73;;;23.40;48.00;;;;;;5092992;28;20198;-45
2023/01/02 11:40:00;;;;;;;1.05;0.57;;;23.30;48.00;;;;;;5092492;28;20198;-41
2023/01/02 11:45:27;;;;;;;2.25;0.70;;;23.30;48.00;;;;;;5092541;28;20221;-49
2023/01/02 11:48:00;;;;;;;2.33;0.70;;;23.30;48.00;;;;;;5093282;28;20272;-45
2023/01/02 11:50:32;;;;;;;1.80;0.75;;;23.20;47.90;;;;;;5092444;28;20191;-42
2023/01/02 11:53:08;;;;;;;0.55;0.50;;;23.20;48.00;;;;;;5090656;28;20198;-46
2023/01/02 11:55:43;;;;;;;1.70;0.63;;;23.20;48.00;;;;;;5071676;28;20194;-46
2023/01/02 11:58:21;;;;;;;3.15;0.88;;;23.20;48.00;;;;;;5071752;28;20670;-42
2023/01/02 12:00:58;;;;;;;1.13;0.60;;;23.10;48.10;;;;;;5072427;28;20191;-43
2023/01/02 12:03:31;;;;;;;1.60;0.52;;;23.10;48.10;;;;;;5071366;28;20210;-42
2023/01/02 12:06:18;;;;;;;2.03;0.77;;;23.00;48.00;;;;;;5070966;28;20195;-45
2023/01/02 12:09:04;;;;;;;1.67;0.88;;;23.00;48.70;;;;;;5074564;28;20187;-41
2023/01/02 12:11:54;;;;;;;1.30;0.70;;;23.00;48.10;;;;;;5071949;28;20253;-42
2023/01/02 12:14:34;;;;;;;0.93;0.60;;;23.00;48.10;;;;;;5074596;28;20210;-44
2023/01/02 12:17:16;;;;;;;1.27;0.60;;;23.00;48.20;;;;;;5072207;28;20198;-42
2023/01/02 12:20:17;;;;;;;1.50;0.70;;;22.90;48.10;;;;;;5071770;28;20218;-46
2023/01/02 12:23:12;;;;;;;1.65;0.68;;;22.90;48.10;;;;;;5059264;28;20198;-43
2023/01/02 12:25:54;;;;;;;0.88;0.60;;;22.90;48.10;;;;;;5065968;28;20655;-43
2023/01/02 12:28:44;;;;;;;1.05;0.60;;;22.90;48.10;;;;;;5071944;28;20202;-42
2023/01/02 12:31:28;;;;;;;1.58;0.70;;;22.90;48.10;;;;;;5072189;28;20562;-42
2023/01/02 12:34:09;;;;;;;1.83;0.70;;;22.80;48.10;;;;;;5071589;28;20222;-43
2023/01/02 12:36:55;;;;;;;1.15;0.68;;;22.80;48.20;;;;;;5070776;28;20202;-43
2023/01/02 12:40:00;;;;;;;0.52;0.43;;;22.80;48.20;;;;;;5071497;28;20190;-40
2023/01/02 12:42:52;;;;;;;1.05;0.60;;;22.70;48.20;;;;;;5062848;28;20670;-41
2023/01/02 12:45:30;;;;;;;1.35;0.63;;;22.70;48.20;;;;;;5071677;28;20238;-43
2023/01/02 12:48:15;;;;;;;1.08;0.60;;;22.70;48.20;;;;;;5071879;28;20202;-41
2023/01/02 12:51:10;;;;;;;1.27;0.65;;;22.70;48.30;;;;;;5084286;28;20269;-39
2023/01/02 12:54:01;;;;;;;0.88;0.50;;;22.60;48.30;;;;;;5084650;28;20226;-43
2023/01/02 12:56:40;;;;;;;0.90;0.63;;;22.60;48.20;;;;;;5071066;28;20207;-40
2023/01/02 12:59:37;;;;;;;1.15;0.70;;;22.60;48.20;;;;;;5074303;28;20195;-43
2023/01/02 13:02:15;;;;;;;0.93;0.32;;;22.60;48.30;;;;;;5081207;28;20665;-42
2023/01/02 13:04:51;;;;;;;1.92;0.70;;;22.60;48.30;;;;;;5080918;28;20234;-42
2023/01/02 13:07:31;;;;;;;1.10;0.60;;;22.60;48.30;;;;;;5080272;28;20186;-42
2023/01/02 13:10:05;;;;;;;1.48;0.60;;;22.50;48.20;;;;;;5070556;28;20221;-44
2023/01/02 13:12:37;;;;;;;1.50;0.60;;;22.50;48.30;;;;;;5070771;28;20206;-42
2023/01/02 13:15:18;;;;;;;0.73;0.52;;;22.50;48.40;;;;;;5071136;28;20223;-43
2023/01/02 13:17:59;;;;;;;1.40;0.50;;;22.40;48.40;;;;;;5071220;28;20195;-44
2023/01/02 13:20:40;;;;;;;1.13;0.50;;;22.40;48.40;;;;;;5071132;28;20205;-47
2023/01/02 13:23:25;;;;;;;1.10;0.65;;;22.40;48.40;;;;;;5073430;28;20210;-47
2023/01/02 13:25:59;;;;;;;1.33;0.50;;;22.40;48.40;;;;;;5091061;28;20745;-44
2023/01/02 13:28:30;;;;;;;0.80;0.50;;;22.40;48.40;;;;;;5091111;28;20198;-47
2023/01/02 13:31:06;;;;;;;0.80;0.50;;;22.30;48.30;;;;;;5090921;28;20198;-41